createdAt,value
2018-11-07T00:00:24.435Z,6.83
2018-11-07T00:02:52.940Z,5.80
2018-11-07T00:05:21.421Z,6.27
2018-11-07T00:07:49.964Z,6.17
2018-11-07T00:10:18.407Z,5.97
2018-11-07T00:12:46.903Z,8.00
2018-11-07T00:15:16.229Z,7.30
2018-11-07T00:17:44.678Z,7.00
2018-11-07T00:20:13.619Z,7.57
2018-11-07T00:22:42.091Z,7.73
2018-11-07T00:25:11.747Z,7.40
2018-11-07T00:27:41.053Z,7.30
2018-11-07T00:30:11.283Z,9.13
2018-11-07T00:32:40.171Z,7.47
2018-11-07T00:35:10.023Z,10.83
2018-11-07T00:38:08.969Z,8.50
2018-11-07T00:40:37.454Z,8.73
2018-11-07T00:43:06.273Z,8.73
2018-11-07T00:45:34.824Z,9.15
2018-11-07T00:48:03.625Z,8.87
2018-11-07T00:50:32.075Z,8.80
2018-11-07T00:53:00.561Z,10.43
2018-11-07T00:55:28.985Z,9.27
2018-11-07T00:57:57.464Z,9.30
2018-11-07T01:00:25.928Z,9.23
2018-11-07T01:02:54.515Z,8.77
2018-11-07T01:05:22.957Z,9.67
2018-11-07T01:07:51.452Z,8.50
2018-11-07T01:10:19.983Z,9.57
2018-11-07T01:12:48.477Z,10.60
2018-11-07T01:15:17.007Z,8.57
2018-11-07T01:17:45.459Z,8.13
2018-11-07T01:20:14.980Z,10.00
2018-11-07T01:22:44.315Z,9.30
2018-11-07T01:25:12.833Z,9.63
2018-11-07T01:27:41.549Z,9.30
2018-11-07T01:30:12.061Z,10.20
2018-11-07T01:32:40.701Z,9.68
2018-11-07T01:35:09.464Z,9.93
2018-11-07T01:37:38.099Z,9.60
2018-11-07T01:40:09.117Z,10.70
2018-11-07T01:42:37.578Z,10.43
2018-11-07T01:45:07.232Z,10.80
2018-11-07T01:47:35.973Z,11.50
2018-11-07T01:50:05.205Z,10.83
2018-11-07T01:52:33.684Z,11.12
2018-11-07T01:55:02.165Z,11.30
2018-11-07T01:57:30.669Z,10.40
2018-11-07T02:00:29.569Z,10.13
2018-11-07T02:02:58.055Z,10.05
2018-11-07T02:05:26.550Z,10.77
2018-11-07T02:07:55.055Z,10.20
2018-11-07T02:10:23.596Z,9.37
2018-11-07T02:12:52.063Z,11.50
2018-11-07T02:15:20.984Z,11.77
2018-11-07T02:17:49.476Z,11.53
2018-11-07T02:20:17.968Z,11.87
2018-11-07T02:22:46.444Z,11.80
2018-11-07T02:25:14.929Z,11.97
2018-11-07T02:27:43.430Z,12.50
2018-11-07T02:30:14.327Z,11.17
2018-11-07T02:32:42.867Z,12.15
2018-11-07T02:35:11.370Z,11.53
2018-11-07T02:37:39.905Z,12.00
2018-11-07T02:40:09.208Z,11.53
2018-11-07T02:42:37.883Z,11.63
2018-11-07T02:45:06.654Z,9.77
2018-11-07T02:47:41.276Z,13.75
2018-11-07T02:50:10.470Z,12.90
2018-11-07T02:52:38.939Z,13.60
2018-11-07T02:55:07.675Z,11.73
2018-11-07T02:57:36.274Z,14.00
2018-11-07T03:00:06.344Z,12.40
2018-11-07T03:02:34.812Z,11.57
2018-11-07T03:05:03.327Z,11.63
2018-11-07T03:07:31.768Z,12.43
2018-11-07T03:10:00.263Z,11.90
2018-11-07T03:12:29.488Z,12.33
2018-11-07T03:14:57.924Z,12.33
2018-11-07T03:17:26.396Z,10.90
2018-11-07T03:19:54.872Z,11.70
2018-11-07T03:22:23.356Z,12.90
2018-11-07T03:24:51.836Z,12.40
2018-11-07T03:27:20.371Z,12.30
2018-11-07T03:29:48.833Z,13.27
2018-11-07T03:32:17.421Z,12.17
2018-11-07T03:34:45.923Z,13.40
2018-11-07T03:37:14.411Z,12.57
2018-11-07T03:39:43.053Z,10.78
2018-11-07T03:42:11.504Z,12.20
2018-11-07T03:44:39.993Z,10.90
2018-11-07T03:47:08.580Z,12.20
2018-11-07T03:49:37.116Z,10.20
2018-11-07T03:52:05.570Z,11.50
2018-11-07T03:54:34.429Z,10.35
2018-11-07T03:57:02.949Z,11.77
2018-11-07T03:59:31.541Z,11.10
2018-11-07T04:01:59.994Z,11.47
2018-11-07T04:04:28.480Z,11.27
2018-11-07T04:06:56.961Z,10.20
2018-11-07T04:09:25.390Z,11.67
2018-11-07T04:11:53.851Z,13.03
2018-11-07T04:14:22.335Z,11.00
2018-11-07T04:16:51.467Z,11.57
2018-11-07T04:19:19.932Z,11.60
2018-11-07T04:21:48.471Z,10.27
2018-11-07T04:24:16.946Z,10.40
2018-11-07T04:26:45.460Z,12.10
2018-11-07T04:29:13.932Z,11.40
2018-11-07T04:31:42.668Z,11.70
2018-11-07T04:34:11.135Z,10.63
2018-11-07T04:36:39.644Z,13.47
2018-11-07T04:39:09.643Z,11.03
2018-11-07T04:41:38.115Z,10.83
2018-11-07T04:44:06.787Z,13.17
2018-11-07T04:46:35.271Z,11.67
2018-11-07T04:49:04.030Z,11.50
2018-11-07T04:51:32.655Z,11.77
2018-11-07T04:54:01.157Z,12.47
2018-11-07T04:56:29.655Z,12.13
2018-11-07T04:58:58.136Z,12.70
2018-11-07T05:01:26.668Z,12.47
2018-11-07T05:03:55.139Z,12.43
2018-11-07T05:06:23.716Z,12.20
2018-11-07T05:08:52.224Z,11.80
2018-11-07T05:11:20.915Z,12.07
2018-11-07T05:13:49.420Z,13.07
2018-11-07T05:16:17.936Z,13.87
2018-11-07T05:18:46.428Z,11.47
2018-11-07T05:21:15.076Z,12.40
2018-11-07T05:23:43.541Z,13.63
2018-11-07T05:26:12.183Z,12.33
2018-11-07T05:28:40.625Z,12.83
2018-11-07T05:31:09.106Z,13.60
2018-11-07T05:33:37.589Z,11.40
2018-11-07T05:36:06.984Z,12.00
2018-11-07T05:38:35.475Z,13.40
2018-11-07T05:41:03.977Z,13.28
2018-11-07T05:43:32.429Z,12.73
2018-11-07T05:46:00.900Z,13.60
2018-11-07T05:48:29.383Z,12.63
2018-11-07T05:50:58.111Z,12.30
2018-11-07T05:53:26.627Z,12.57
2018-11-07T05:55:55.306Z,13.50
2018-11-07T05:58:24.280Z,13.33
2018-11-07T06:00:52.845Z,13.97
2018-11-07T06:03:21.345Z,14.37
2018-11-07T06:05:49.887Z,12.90
2018-11-07T06:08:18.370Z,13.40
2018-11-07T06:10:46.846Z,13.70
2018-11-07T06:13:15.482Z,14.93
2018-11-07T06:15:43.964Z,16.13
2018-11-07T06:18:12.689Z,14.70
2018-11-07T06:20:41.168Z,14.40
2018-11-07T06:23:09.696Z,15.43
2018-11-07T06:25:38.511Z,15.30
2018-11-07T06:28:07.064Z,15.10
2018-11-07T06:30:35.721Z,14.20
2018-11-07T06:33:04.204Z,13.55
2018-11-07T06:35:32.716Z,15.05
2018-11-07T06:38:01.348Z,15.27
2018-11-07T06:40:29.836Z,15.93
2018-11-07T06:42:58.320Z,15.10
2018-11-07T06:45:26.821Z,28.62
2018-11-07T06:47:55.404Z,23.13
2018-11-07T06:50:23.893Z,83.43
2018-11-07T06:52:52.411Z,24.43
2018-11-07T06:55:20.931Z,14.20
2018-11-07T06:57:49.419Z,14.13
2018-11-07T07:00:18.448Z,13.37
2018-11-07T07:02:47.940Z,14.30
2018-11-07T07:05:16.739Z,15.10
2018-11-07T07:07:45.284Z,13.50
2018-11-07T07:10:15.214Z,16.17
2018-11-07T07:12:43.707Z,17.13
2018-11-07T07:15:13.829Z,16.30
2018-11-07T07:17:42.457Z,18.60
2018-11-07T07:20:13.688Z,20.65
2018-11-07T07:22:42.918Z,19.10
2018-11-07T07:25:12.423Z,19.80
2018-11-07T07:27:41.654Z,19.67
2018-11-07T07:30:12.850Z,18.87
2018-11-07T07:32:42.148Z,20.50
2018-11-07T07:35:10.785Z,19.37
2018-11-07T07:37:39.531Z,19.00
2018-11-07T07:40:09.603Z,18.63
2018-11-07T07:42:38.834Z,19.13
2018-11-07T07:45:09.415Z,19.80
2018-11-07T07:47:38.212Z,20.73
2018-11-07T07:50:08.278Z,18.95
2018-11-07T07:52:36.748Z,21.12
2018-11-07T07:55:05.588Z,18.70
2018-11-07T07:57:34.059Z,20.57
2018-11-07T08:00:02.573Z,20.17
2018-11-07T08:02:31.124Z,22.63
2018-11-07T08:04:59.612Z,25.03
2018-11-07T08:07:28.125Z,21.73
2018-11-07T08:09:56.614Z,23.60
2018-11-07T08:12:25.136Z,23.38
2018-11-07T08:14:53.615Z,24.53
2018-11-07T08:17:22.120Z,23.77
2018-11-07T08:19:50.699Z,21.90
2018-11-07T08:22:19.236Z,22.93
2018-11-07T08:24:47.691Z,22.20
2018-11-07T08:27:16.126Z,21.20
2018-11-07T08:29:44.592Z,18.00
2018-11-07T08:32:13.083Z,19.73
2018-11-07T08:34:41.596Z,18.32
2018-11-07T08:37:10.122Z,18.10
2018-11-07T08:39:38.588Z,17.40
2018-11-07T08:42:07.119Z,15.83
2018-11-07T08:44:35.551Z,15.37
2018-11-07T08:47:04.020Z,15.30
2018-11-07T08:49:32.496Z,11.60
2018-11-07T08:52:00.936Z,13.97
2018-11-07T08:54:29.424Z,14.00
2018-11-07T08:56:58.296Z,16.70
2018-11-07T08:59:26.852Z,14.93
2018-11-07T09:01:55.329Z,13.17
2018-11-07T09:04:23.817Z,13.70
2018-11-07T09:06:52.293Z,14.00
2018-11-07T09:09:20.875Z,11.60
2018-11-07T09:11:49.427Z,13.33
2018-11-07T09:14:17.921Z,14.15
2018-11-07T09:16:46.417Z,12.87
2018-11-07T09:19:15.173Z,13.15
2018-11-07T09:21:43.760Z,13.15
2018-11-07T09:24:12.887Z,13.70
2018-11-07T09:26:42.051Z,13.57
2018-11-07T09:29:10.585Z,14.77
2018-11-07T09:31:39.199Z,14.93
2018-11-07T09:34:07.684Z,12.50
2018-11-07T09:36:36.144Z,14.17
2018-11-07T09:39:07.007Z,15.40
2018-11-07T09:41:35.506Z,14.23
2018-11-07T09:44:04.351Z,15.30
2018-11-07T09:46:33.539Z,14.37
2018-11-07T09:49:02.043Z,13.93
2018-11-07T09:51:31.163Z,14.50
2018-11-07T09:54:00.485Z,13.80
2018-11-07T09:56:28.871Z,13.88
2018-11-07T09:58:57.393Z,12.83
2018-11-07T10:01:26.365Z,14.50
2018-11-07T10:03:55.089Z,13.20
2018-11-07T10:06:23.644Z,12.18
2018-11-07T10:08:52.089Z,13.50
2018-11-07T10:11:20.605Z,13.67
2018-11-07T10:13:49.104Z,11.50
2018-11-07T10:16:17.653Z,11.70
2018-11-07T10:18:46.119Z,12.00
2018-11-07T10:21:14.631Z,13.23
2018-11-07T10:23:43.160Z,13.40
2018-11-07T10:26:11.669Z,10.23
2018-11-07T10:28:40.358Z,10.50
2018-11-07T10:31:08.832Z,11.28
2018-11-07T10:33:37.564Z,11.78
2018-11-07T10:36:06.026Z,11.20
2018-11-07T10:38:34.767Z,11.50
2018-11-07T10:41:03.145Z,9.40
2018-11-07T10:43:31.687Z,9.90
2018-11-07T10:46:00.217Z,9.47
2018-11-07T10:48:28.669Z,10.13
2018-11-07T10:50:57.137Z,8.97
2018-11-07T10:53:25.608Z,8.83
2018-11-07T10:55:54.131Z,8.80
2018-11-07T10:58:22.679Z,8.60
2018-11-07T11:00:56.474Z,9.73
2018-11-07T11:03:30.339Z,9.87
2018-11-07T11:05:59.032Z,8.90
2018-11-07T11:08:27.780Z,9.43
2018-11-07T11:10:56.260Z,9.73
2018-11-07T11:13:25.911Z,9.13
2018-11-07T11:15:54.376Z,9.20
2018-11-07T11:18:22.843Z,9.30
2018-11-07T11:20:51.364Z,9.60
2018-11-07T11:23:19.916Z,9.80
2018-11-07T11:25:48.436Z,9.67
2018-11-07T11:28:16.898Z,11.25
2018-11-07T11:30:45.664Z,10.30
2018-11-07T11:33:14.804Z,10.50
2018-11-07T11:35:43.287Z,9.40
2018-11-07T11:38:11.774Z,10.10
2018-11-07T11:40:40.263Z,9.38
2018-11-07T11:43:09.015Z,9.33
2018-11-07T11:45:37.530Z,10.60
2018-11-07T11:48:06.356Z,9.53
2018-11-07T11:50:34.836Z,12.47
2018-11-07T11:53:03.348Z,12.13
2018-11-07T11:55:31.840Z,11.20
2018-11-07T11:58:00.326Z,11.40
2018-11-07T12:00:29.010Z,10.50
2018-11-07T12:02:57.738Z,10.87
2018-11-07T12:05:26.401Z,11.70
2018-11-07T12:07:54.875Z,10.27
2018-11-07T12:10:24.841Z,11.57
2018-11-07T12:12:54.656Z,12.13
2018-11-07T12:15:24.487Z,12.07
2018-11-07T12:17:53.642Z,11.25
2018-11-07T12:20:22.630Z,12.57
2018-11-07T12:22:51.686Z,12.47
2018-11-07T12:25:21.064Z,12.70
2018-11-07T12:27:49.571Z,13.65
2018-11-07T12:30:20.822Z,11.77
2018-11-07T12:32:50.303Z,14.13
2018-11-07T12:35:19.272Z,13.20
2018-11-07T12:37:48.159Z,13.60
2018-11-07T12:40:17.180Z,13.37
2018-11-07T12:42:46.265Z,12.88
2018-11-07T12:45:15.789Z,13.47
2018-11-07T12:47:44.320Z,13.58
2018-11-07T12:50:15.233Z,12.13
2018-11-07T12:52:44.657Z,12.53
2018-11-07T12:55:13.624Z,15.00
2018-11-07T12:57:42.545Z,13.13
2018-11-07T13:00:14.575Z,14.70
2018-11-07T13:02:43.132Z,15.60
2018-11-07T13:05:13.316Z,13.33
2018-11-07T13:07:42.594Z,14.10
2018-11-07T13:10:14.235Z,14.37
2018-11-07T13:12:43.888Z,13.43
2018-11-07T13:15:12.983Z,14.30
2018-11-07T13:17:41.721Z,13.93
2018-11-07T13:20:13.364Z,12.97
2018-11-07T13:22:42.709Z,15.93
2018-11-07T13:25:12.340Z,18.10
2018-11-07T13:27:41.020Z,14.17
2018-11-07T13:30:12.084Z,14.65
2018-11-07T13:32:41.143Z,13.00
2018-11-07T13:35:10.759Z,14.00
2018-11-07T13:37:40.409Z,13.87
2018-11-07T13:40:12.437Z,14.27
2018-11-07T13:42:41.475Z,13.27
2018-11-07T13:45:12.112Z,14.77
2018-11-07T13:47:41.789Z,14.40
2018-11-07T13:50:11.189Z,15.33
2018-11-07T13:52:40.218Z,13.97
2018-11-07T13:55:10.119Z,13.90
2018-11-07T13:57:39.423Z,14.43
2018-11-07T14:00:13.232Z,16.23
2018-11-07T14:02:41.828Z,13.97
2018-11-07T14:05:11.331Z,15.25
2018-11-07T14:07:40.231Z,16.13
2018-11-07T14:10:11.771Z,17.77
2018-11-07T14:12:41.009Z,18.07
2018-11-07T14:15:12.447Z,18.67
2018-11-07T14:17:41.576Z,16.97
2018-11-07T14:20:10.392Z,16.93
2018-11-07T14:22:39.511Z,18.80
2018-11-07T14:25:09.238Z,19.80
2018-11-07T14:27:38.217Z,17.70
2018-11-07T14:30:11.131Z,17.90
2018-11-07T14:32:45.746Z,18.90
2018-11-07T14:35:14.645Z,17.80
2018-11-07T14:37:43.356Z,17.57
2018-11-07T14:40:11.966Z,17.50
2018-11-07T14:42:40.739Z,20.50
2018-11-07T14:45:10.882Z,19.42
2018-11-07T14:47:39.931Z,21.20
2018-11-07T14:50:09.516Z,21.82
2018-11-07T14:52:38.539Z,21.73
2018-11-07T14:55:09.004Z,21.87
2018-11-07T14:57:37.813Z,20.27
2018-11-07T15:00:12.452Z,21.97
2018-11-07T15:02:42.339Z,20.80
2018-11-07T15:05:12.255Z,21.67
2018-11-07T15:07:41.373Z,22.47
2018-11-07T15:10:11.024Z,22.10
2018-11-07T15:12:39.709Z,21.67
2018-11-07T15:15:10.242Z,22.20
2018-11-07T15:17:38.688Z,22.40
2018-11-07T15:20:08.278Z,24.10
2018-11-07T15:22:36.818Z,23.35
2018-11-07T15:25:06.059Z,20.97
2018-11-07T15:27:34.739Z,25.25
2018-11-07T15:30:03.488Z,24.40
2018-11-07T15:32:31.980Z,22.90
2018-11-07T15:35:00.437Z,25.23
2018-11-07T15:37:28.965Z,25.00
2018-11-07T15:39:58.453Z,28.10
2018-11-07T15:42:26.992Z,24.80
2018-11-07T15:44:55.460Z,26.10
2018-11-07T15:47:23.996Z,24.70
2018-11-07T15:49:57.638Z,24.60
2018-11-07T15:52:26.177Z,25.40
2018-11-07T15:54:54.635Z,26.00
2018-11-07T15:57:23.120Z,23.93
2018-11-07T15:59:51.616Z,25.60
2018-11-07T16:02:20.207Z,35.80
2018-11-07T16:04:48.675Z,30.63
2018-11-07T16:07:17.269Z,29.00
2018-11-07T16:09:45.741Z,27.97
2018-11-07T16:12:14.204Z,28.23
2018-11-07T16:14:42.672Z,27.97
2018-11-07T16:17:11.164Z,26.53
2018-11-07T16:19:40.016Z,27.33
2018-11-07T16:22:08.609Z,29.60
2018-11-07T16:24:37.080Z,26.80
2018-11-07T16:27:06.108Z,30.40
2018-11-07T16:29:34.573Z,29.30
2018-11-07T16:32:03.176Z,28.90
2018-11-07T16:34:31.637Z,29.23
2018-11-07T16:37:00.179Z,28.65
2018-11-07T16:39:28.630Z,29.07
2018-11-07T16:42:03.465Z,27.37
2018-11-07T16:44:32.032Z,28.80
2018-11-07T16:47:00.510Z,29.10
2018-11-07T16:49:29.003Z,28.70
2018-11-07T16:51:57.486Z,30.37
2018-11-07T16:54:25.994Z,31.23
2018-11-07T16:56:54.467Z,32.57
2018-11-07T16:59:22.943Z,27.90
2018-11-07T17:01:51.468Z,30.20
2018-11-07T17:04:20.234Z,30.23
2018-11-07T17:06:48.762Z,29.20
2018-11-07T17:09:17.247Z,30.40
2018-11-07T17:11:45.731Z,29.77
2018-11-07T17:14:14.513Z,32.80
2018-11-07T17:16:43.026Z,31.03
2018-11-07T17:19:12.029Z,29.95
2018-11-07T17:21:40.821Z,31.13
2018-11-07T17:24:09.391Z,29.87
2018-11-07T17:26:37.869Z,31.97
2018-11-07T17:29:06.475Z,32.60
2018-11-07T17:31:34.955Z,30.20
2018-11-07T17:34:03.804Z,31.90
2018-11-07T17:36:32.515Z,33.97
2018-11-07T17:39:01.021Z,33.80
2018-11-07T17:41:29.508Z,31.77
2018-11-07T17:43:58.105Z,37.90
2018-11-07T17:46:26.596Z,38.33
2018-11-07T17:48:55.089Z,33.40
2018-11-07T17:51:23.597Z,34.17
2018-11-07T17:53:52.135Z,32.10
2018-11-07T17:56:20.920Z,31.25
2018-11-07T17:58:49.614Z,29.70
2018-11-07T18:01:18.384Z,27.87
2018-11-07T18:03:46.880Z,31.90
2018-11-07T18:06:15.435Z,30.30
2018-11-07T18:08:44.127Z,31.77
2018-11-07T18:11:12.930Z,32.40
2018-11-07T18:13:42.241Z,34.47
2018-11-07T18:16:10.802Z,32.20
2018-11-07T18:18:40.286Z,32.77
2018-11-07T18:21:08.911Z,32.83
2018-11-07T18:23:37.774Z,37.20
2018-11-07T18:26:06.616Z,34.93
2018-11-07T18:28:35.387Z,33.70
2018-11-07T18:31:04.372Z,34.50
2018-11-07T18:33:32.960Z,33.77
2018-11-07T18:36:01.765Z,31.73
2018-11-07T18:38:30.383Z,31.77
2018-11-07T18:40:59.641Z,32.17
2018-11-07T18:43:28.157Z,32.13
2018-11-07T18:45:56.663Z,33.20
2018-11-07T18:48:25.411Z,32.47
2018-11-07T18:50:54.235Z,33.67
2018-11-07T18:53:22.693Z,31.30
2018-11-07T18:55:51.207Z,33.07
2018-11-07T18:58:19.707Z,34.80
2018-11-07T19:00:48.714Z,34.00
2018-11-07T19:03:17.227Z,35.27
2018-11-07T19:05:45.818Z,34.38
2018-11-07T19:08:14.678Z,31.03
2018-11-07T19:10:43.954Z,34.03
2018-11-07T19:13:12.468Z,34.08
2018-11-07T19:15:40.959Z,33.85
2018-11-07T19:18:10.402Z,32.53
2018-11-07T19:20:38.962Z,33.25
2018-11-07T19:23:07.405Z,44.33
2018-11-07T19:25:35.878Z,43.17
2018-11-07T19:28:04.877Z,34.37
2018-11-07T19:30:33.360Z,39.70
2018-11-07T19:33:02.227Z,32.05
2018-11-07T19:35:30.933Z,31.97
2018-11-07T19:37:59.625Z,32.20
2018-11-07T19:40:28.468Z,31.55
2018-11-07T19:42:56.912Z,34.27
2018-11-07T19:45:25.401Z,34.33
2018-11-07T19:47:53.947Z,35.83
2018-11-07T19:50:23.523Z,32.27
2018-11-07T19:52:52.847Z,34.43
2018-11-07T19:55:23.100Z,34.80
2018-11-07T19:57:54.430Z,34.93
2018-11-07T20:00:23.225Z,33.63
2018-11-07T20:02:51.896Z,31.43
2018-11-07T20:05:20.647Z,33.83
2018-11-07T20:07:49.170Z,33.23
2018-11-07T20:10:19.528Z,34.53
2018-11-07T20:12:48.495Z,35.00
2018-11-07T20:15:18.487Z,33.60
2018-11-07T20:17:47.204Z,34.37
2018-11-07T20:20:16.087Z,35.43
2018-11-07T20:22:44.812Z,35.25
2018-11-07T20:25:14.049Z,34.47
2018-11-07T20:27:43.263Z,37.27
2018-11-07T20:30:13.649Z,45.63
2018-11-07T20:32:42.848Z,57.70
2018-11-07T20:35:12.936Z,125.50
2018-11-07T20:37:41.959Z,103.90
2018-11-07T20:40:13.685Z,97.33
2018-11-07T20:42:42.420Z,59.27
2018-11-07T20:45:12.004Z,38.40
2018-11-07T20:47:40.729Z,37.83
2018-11-07T20:50:12.135Z,35.47
2018-11-07T20:52:41.128Z,36.27
2018-11-07T20:55:10.392Z,34.58
2018-11-07T20:57:38.928Z,33.10
2018-11-07T21:00:11.889Z,35.73
2018-11-07T21:02:40.893Z,31.40
2018-11-07T21:05:09.783Z,33.47
2018-11-07T21:07:39.627Z,34.67
2018-11-07T21:10:13.021Z,39.30
2018-11-07T21:12:42.216Z,36.97
2018-11-07T21:15:11.886Z,34.90
2018-11-07T21:17:41.507Z,34.07
2018-11-07T21:20:40.629Z,36.27
2018-11-07T21:23:09.132Z,35.93
2018-11-07T21:25:37.615Z,34.13
2018-11-07T21:28:06.143Z,36.57
2018-11-07T21:30:34.814Z,34.57
2018-11-07T21:33:03.252Z,35.77
2018-11-07T21:35:31.709Z,37.95
2018-11-07T21:38:00.180Z,35.83
2018-11-07T21:40:28.676Z,39.60
2018-11-07T21:42:57.215Z,37.47
2018-11-07T21:45:25.743Z,35.87
2018-11-07T21:47:54.230Z,33.47
2018-11-07T21:50:22.745Z,33.87
2018-11-07T21:52:51.259Z,34.70
2018-11-07T21:55:19.747Z,35.80
2018-11-07T21:57:48.775Z,34.10
2018-11-07T22:00:18.615Z,35.30
2018-11-07T22:02:47.325Z,33.63
2018-11-07T22:05:17.021Z,32.70
2018-11-07T22:07:46.728Z,31.20
2018-11-07T22:10:16.786Z,32.23
2018-11-07T22:12:45.611Z,31.47
2018-11-07T22:15:14.139Z,36.70
2018-11-07T22:17:42.591Z,32.13
2018-11-07T22:20:14.132Z,31.23
2018-11-07T22:22:42.958Z,30.60
2018-11-07T22:25:11.771Z,29.10
2018-11-07T22:27:40.235Z,30.23
2018-11-07T22:30:10.757Z,32.60
2018-11-07T22:32:39.982Z,30.67
2018-11-07T22:35:10.149Z,31.50
2018-11-07T22:37:38.673Z,28.20
2018-11-07T22:40:09.040Z,31.70
2018-11-07T22:42:37.548Z,30.53
2018-11-07T22:45:06.755Z,28.83
2018-11-07T22:47:35.784Z,32.40
2018-11-07T22:50:04.484Z,33.38
2018-11-07T22:52:32.981Z,32.93
2018-11-07T22:55:01.496Z,33.90
2018-11-07T22:57:30.017Z,33.03
2018-11-07T22:59:58.690Z,34.67
2018-11-07T23:02:27.194Z,31.57
2018-11-07T23:05:58.249Z,35.27
2018-11-07T23:08:27.000Z,36.73
2018-11-07T23:10:55.474Z,38.67
2018-11-07T23:13:24.396Z,37.93
2018-11-07T23:15:52.911Z,39.73
2018-11-07T23:18:21.696Z,39.17
2018-11-07T23:20:50.157Z,39.47
2018-11-07T23:23:18.621Z,38.93
2018-11-07T23:25:47.534Z,39.90
2018-11-07T23:28:16.036Z,38.87
2018-11-07T23:30:44.640Z,39.40
2018-11-07T23:33:13.104Z,39.30
2018-11-07T23:35:41.597Z,38.10
2018-11-07T23:38:10.074Z,34.70
2018-11-07T23:40:38.573Z,35.70
2018-11-07T23:43:07.061Z,36.90
2018-11-07T23:45:35.572Z,36.63
2018-11-07T23:48:04.041Z,38.92
2018-11-07T23:50:32.535Z,37.10
2018-11-07T23:53:01.033Z,39.43
2018-11-07T23:55:29.504Z,37.55
2018-11-07T23:57:58.220Z,38.10
